createdAt,value
2023-05-12T00:02:14.377Z,52.91
2023-05-12T00:04:41.443Z,52.81
2023-05-12T00:07:08.076Z,52.68
2023-05-12T00:09:34.673Z,52.65
2023-05-12T00:12:02.297Z,52.86
2023-05-12T00:14:28.849Z,52.79
2023-05-12T00:16:55.400Z,52.95
2023-05-12T00:19:22.028Z,52.96
2023-05-12T00:21:48.523Z,52.83
2023-05-12T00:24:15.130Z,52.94
2023-05-12T00:26:41.608Z,52.77
2023-05-12T00:29:08.178Z,52.62
2023-05-12T00:31:34.754Z,52.88
2023-05-12T00:34:01.280Z,52.79
2023-05-12T00:36:28.084Z,52.84
2023-05-12T00:38:54.654Z,52.75
2023-05-12T00:41:21.125Z,52.59
2023-05-12T00:43:47.710Z,52.68
2023-05-12T00:46:14.469Z,52.68
2023-05-12T00:48:41.188Z,52.66
2023-05-12T00:51:08.645Z,52.68
2023-05-12T00:53:48.532Z,52.56
2023-05-12T00:56:18.899Z,52.60
2023-05-12T00:58:45.986Z,52.65
2023-05-12T01:01:12.934Z,52.82
2023-05-12T01:03:39.798Z,52.53
2023-05-12T01:06:13.547Z,52.72
2023-05-12T01:08:42.169Z,52.99
2023-05-12T01:11:08.859Z,52.62
2023-05-12T01:13:36.100Z,52.71
2023-05-12T01:16:04.234Z,52.54
2023-05-12T01:18:34.261Z,52.81
2023-05-12T01:21:01.995Z,52.63
2023-05-12T01:23:37.574Z,52.66
2023-05-12T01:26:08.593Z,52.80
2023-05-12T01:28:36.116Z,52.50
2023-05-12T01:31:05.456Z,52.66
2023-05-12T01:33:34.046Z,52.56
2023-05-12T01:36:00.566Z,52.48
2023-05-12T01:38:27.595Z,52.57
2023-05-12T01:40:54.079Z,52.45
2023-05-12T01:43:22.153Z,52.35
2023-05-12T01:45:48.960Z,52.27
2023-05-12T01:48:15.536Z,52.53
2023-05-12T01:50:42.506Z,52.16
2023-05-12T01:53:10.576Z,52.29
2023-05-12T01:55:37.072Z,52.31
2023-05-12T01:58:03.647Z,52.43
2023-05-12T02:00:30.149Z,52.24
2023-05-12T02:02:56.914Z,52.47
2023-05-12T02:05:23.562Z,52.34
2023-05-12T02:07:50.159Z,52.40
2023-05-12T02:10:16.898Z,52.58
2023-05-12T02:12:43.512Z,52.46
2023-05-12T02:15:10.236Z,52.38
2023-05-12T02:17:36.844Z,52.28
2023-05-12T02:20:05.349Z,52.17
2023-05-12T02:22:31.899Z,52.36
2023-05-12T02:24:58.391Z,52.33
2023-05-12T02:27:24.942Z,52.20
2023-05-12T02:29:51.405Z,52.35
2023-05-12T02:32:17.947Z,52.28
2023-05-12T02:34:44.414Z,52.33
2023-05-12T02:37:10.930Z,52.16
2023-05-12T02:39:37.392Z,52.44
2023-05-12T02:42:04.201Z,52.21
2023-05-12T02:44:30.684Z,52.30
2023-05-12T02:46:58.045Z,52.39
2023-05-12T02:49:24.630Z,52.44
2023-05-12T02:51:51.093Z,52.30
2023-05-12T02:54:17.623Z,52.31
2023-05-12T02:56:44.122Z,52.22
2023-05-12T02:59:10.801Z,52.17
2023-05-12T03:01:37.353Z,52.22
2023-05-12T03:04:03.923Z,52.21
2023-05-12T03:06:30.721Z,52.31
2023-05-12T03:08:57.237Z,52.23
2023-05-12T03:11:23.708Z,52.25
2023-05-12T03:13:50.166Z,52.38
2023-05-12T03:16:19.585Z,52.35
2023-05-12T03:18:46.424Z,52.33
2023-05-12T03:21:13.145Z,52.12
2023-05-12T03:23:39.664Z,52.28
2023-05-12T03:26:06.284Z,52.53
2023-05-12T03:28:33.210Z,52.34
2023-05-12T03:30:59.723Z,52.34
2023-05-12T03:33:26.251Z,52.39
2023-05-12T03:35:52.731Z,52.75
2023-05-12T03:38:19.189Z,52.49
2023-05-12T03:40:46.629Z,52.68
2023-05-12T03:43:13.149Z,52.65
2023-05-12T03:45:39.653Z,52.54
2023-05-12T03:48:07.116Z,52.63
2023-05-12T03:50:33.704Z,52.50
2023-05-12T03:53:01.135Z,52.72
2023-05-12T03:55:27.615Z,52.68
2023-05-12T03:57:54.084Z,52.72
2023-05-12T04:00:20.990Z,52.96
2023-05-12T04:02:47.706Z,52.82
2023-05-12T04:05:14.465Z,52.76
2023-05-12T04:07:40.944Z,52.95
2023-05-12T04:10:08.331Z,53.17
2023-05-12T04:12:34.825Z,52.77
2023-05-12T04:15:01.687Z,53.03
2023-05-12T04:17:28.180Z,53.11
2023-05-12T04:19:54.712Z,52.95
2023-05-12T04:22:22.772Z,52.96
2023-05-12T04:24:50.758Z,53.31
2023-05-12T04:27:17.268Z,53.23
2023-05-12T04:29:43.774Z,53.24
2023-05-12T04:32:10.438Z,53.44
2023-05-12T04:34:39.337Z,53.30
2023-05-12T04:37:05.838Z,53.36
2023-05-12T04:39:32.373Z,53.40
2023-05-12T04:42:01.357Z,53.33
2023-05-12T04:44:28.037Z,53.42
2023-05-12T04:46:56.388Z,53.48
2023-05-12T04:49:23.031Z,53.66
2023-05-12T04:51:49.547Z,53.62
2023-05-12T04:54:16.124Z,53.55
2023-05-12T04:56:42.604Z,53.51
2023-05-12T04:59:09.061Z,53.92
2023-05-12T05:01:35.724Z,53.96
2023-05-12T05:04:02.659Z,53.56
2023-05-12T05:06:29.162Z,53.95
2023-05-12T05:08:56.025Z,53.64
2023-05-12T05:11:23.118Z,53.86
2023-05-12T05:13:49.698Z,53.90
2023-05-12T05:16:16.292Z,53.83
2023-05-12T05:18:46.402Z,53.84
2023-05-12T05:21:16.237Z,53.98
2023-05-12T05:23:42.951Z,53.93
2023-05-12T05:26:09.894Z,53.84
2023-05-12T05:28:37.359Z,53.96
2023-05-12T05:31:03.925Z,54.14
2023-05-12T05:33:30.443Z,53.96
2023-05-12T05:35:57.233Z,53.91
2023-05-12T05:38:23.809Z,54.21
2023-05-12T05:40:53.758Z,54.07
2023-05-12T05:43:20.944Z,54.18
2023-05-12T05:45:49.751Z,54.35
2023-05-12T05:48:16.502Z,54.23
2023-05-12T05:50:43.259Z,54.12
2023-05-12T05:53:09.782Z,54.34
2023-05-12T05:55:36.271Z,54.11
2023-05-12T05:58:02.735Z,53.98
2023-05-12T06:00:29.498Z,54.26
2023-05-12T06:02:56.185Z,53.88
2023-05-12T06:05:22.982Z,54.18
2023-05-12T06:07:49.632Z,53.98
2023-05-12T06:10:16.124Z,54.11
2023-05-12T06:12:43.279Z,54.11
2023-05-12T06:15:10.437Z,53.96
2023-05-12T06:17:36.965Z,54.02
2023-05-12T06:20:05.283Z,53.97
2023-05-12T06:22:32.009Z,53.92
2023-05-12T06:24:58.521Z,54.14
2023-05-12T06:27:25.074Z,53.94
2023-05-12T06:29:51.999Z,53.93
2023-05-12T06:32:19.065Z,53.98
2023-05-12T06:34:45.706Z,54.07
2023-05-12T06:37:12.301Z,53.86
2023-05-12T06:39:38.830Z,54.01
2023-05-12T06:42:05.561Z,54.12
2023-05-12T06:44:32.050Z,53.64
2023-05-12T06:46:59.210Z,54.16
2023-05-12T06:49:25.770Z,53.92
2023-05-12T06:51:52.266Z,54.07
2023-05-12T06:54:18.790Z,53.82
2023-05-12T06:56:45.358Z,53.83
2023-05-12T06:59:12.611Z,53.74
2023-05-12T07:01:39.293Z,53.76
2023-05-12T07:04:06.002Z,53.77
2023-05-12T07:06:34.458Z,53.67
2023-05-12T07:09:01.062Z,53.61
2023-05-12T07:11:27.537Z,53.39
2023-05-12T07:13:54.104Z,53.15
2023-05-12T07:16:20.732Z,53.22
2023-05-12T07:18:47.408Z,53.34
2023-05-12T07:21:14.077Z,53.32
2023-05-12T07:23:40.778Z,53.27
2023-05-12T07:26:07.790Z,53.33
2023-05-12T07:28:36.561Z,53.17
2023-05-12T07:31:04.214Z,53.28
2023-05-12T07:33:31.424Z,52.95
2023-05-12T07:35:58.227Z,53.02
2023-05-12T07:38:24.893Z,53.16
2023-05-12T07:40:51.477Z,52.86
2023-05-12T07:43:18.025Z,52.74
2023-05-12T07:45:45.537Z,52.81
2023-05-12T07:48:13.378Z,53.01
2023-05-12T07:50:40.248Z,52.84
2023-05-12T07:53:06.967Z,52.72
2023-05-12T07:55:33.785Z,52.79
2023-05-12T07:58:00.570Z,52.70
2023-05-12T08:00:27.102Z,52.55
2023-05-12T08:02:54.084Z,52.59
2023-05-12T08:05:21.259Z,52.36
2023-05-12T08:07:47.942Z,51.90
2023-05-12T08:10:15.683Z,52.02
2023-05-12T08:12:42.374Z,52.18
2023-05-12T08:15:09.774Z,52.28
2023-05-12T08:17:36.448Z,52.00
2023-05-12T08:20:06.863Z,51.75
2023-05-12T08:22:33.445Z,51.65
2023-05-12T08:24:59.994Z,51.90
2023-05-12T08:27:26.610Z,51.62
2023-05-12T08:29:53.171Z,51.54
2023-05-12T08:32:19.841Z,51.58
2023-05-12T08:34:46.629Z,51.69
2023-05-12T08:37:13.459Z,51.73
2023-05-12T08:39:40.448Z,51.52
2023-05-12T08:42:30.069Z,51.52
2023-05-12T08:44:57.237Z,51.31
2023-05-12T08:47:25.754Z,51.54
2023-05-12T08:50:00.927Z,51.35
2023-05-12T08:52:33.679Z,51.11
2023-05-12T08:55:02.447Z,51.27
2023-05-12T08:57:30.120Z,51.09
2023-05-12T08:59:59.350Z,51.13
2023-05-12T09:02:37.663Z,51.12
2023-05-12T09:05:08.764Z,51.01
2023-05-12T09:07:38.393Z,51.04
2023-05-12T09:10:08.510Z,50.89
2023-05-12T09:12:37.875Z,51.08
2023-05-12T09:15:11.766Z,50.70
2023-05-12T09:17:38.401Z,50.96
2023-05-12T09:20:09.819Z,50.96
2023-05-12T09:22:39.759Z,50.66
2023-05-12T09:25:19.717Z,50.58
2023-05-12T09:27:48.028Z,50.44
2023-05-12T09:30:15.564Z,50.31
2023-05-12T09:32:42.177Z,50.45
2023-05-12T09:35:13.027Z,49.96
2023-05-12T09:37:43.231Z,50.01
2023-05-12T09:40:11.508Z,49.83
2023-05-12T09:42:38.451Z,49.87
2023-05-12T09:45:06.836Z,49.64
2023-05-12T09:47:38.105Z,49.69
2023-05-12T09:50:07.149Z,49.45
2023-05-12T09:52:38.871Z,49.65
2023-05-12T09:55:06.793Z,49.20
2023-05-12T09:57:39.386Z,49.61
2023-05-12T10:00:16.959Z,49.61
2023-05-12T10:02:55.782Z,49.16
2023-05-12T10:05:22.828Z,49.26
2023-05-12T10:07:51.417Z,48.96
2023-05-12T10:10:20.769Z,49.26
2023-05-12T10:12:48.943Z,49.09
2023-05-12T10:15:17.463Z,49.00
2023-05-12T10:17:44.462Z,48.96
2023-05-12T10:20:12.564Z,48.99
2023-05-12T10:22:40.655Z,49.11
2023-05-12T10:25:10.968Z,48.87
2023-05-12T10:27:38.069Z,48.94
2023-05-12T10:30:06.253Z,48.75
2023-05-12T10:32:33.460Z,48.80
2023-05-12T10:35:10.470Z,48.86
2023-05-12T10:37:37.682Z,48.98
2023-05-12T10:40:05.050Z,48.78
2023-05-12T10:42:40.552Z,48.80
2023-05-12T10:45:27.815Z,48.61
2023-05-12T10:48:06.930Z,48.75
2023-05-12T10:50:36.284Z,48.61
2023-05-12T10:53:03.059Z,48.67
2023-05-12T10:55:35.422Z,48.52
2023-05-12T10:58:20.635Z,48.52
2023-05-12T11:00:50.919Z,48.93
2023-05-12T11:03:25.402Z,48.63
2023-05-12T11:06:04.931Z,48.82
2023-05-12T11:08:32.648Z,48.76
2023-05-12T11:10:59.461Z,48.75
2023-05-12T11:13:26.292Z,48.78
2023-05-12T11:15:52.913Z,48.86
2023-05-12T11:18:23.223Z,48.73
2023-05-12T11:20:50.930Z,48.40
2023-05-12T11:23:28.933Z,48.50
2023-05-12T11:25:56.463Z,48.75
2023-05-12T11:28:23.074Z,48.02
2023-05-12T11:30:55.286Z,48.03
2023-05-12T11:33:23.097Z,48.06
2023-05-12T11:35:50.469Z,48.06
2023-05-12T11:38:18.421Z,48.12
2023-05-12T11:40:45.088Z,48.38
2023-05-12T11:43:13.126Z,48.09
2023-05-12T11:45:39.672Z,48.12
2023-05-12T11:48:12.060Z,47.90
2023-05-12T11:50:43.363Z,48.40
2023-05-12T11:53:12.344Z,48.50
2023-05-12T11:55:51.130Z,48.39
2023-05-12T11:58:22.534Z,48.31
2023-05-12T12:00:49.149Z,48.29
2023-05-12T12:03:16.740Z,48.17
2023-05-12T12:06:00.965Z,48.21
2023-05-12T12:08:27.654Z,48.02
2023-05-12T12:10:54.247Z,47.96
2023-05-12T12:13:25.327Z,48.00
2023-05-12T12:15:52.654Z,48.06
2023-05-12T12:18:19.435Z,47.94
2023-05-12T12:20:46.851Z,48.17
2023-05-12T12:23:13.392Z,47.85
2023-05-12T12:25:39.902Z,47.43
2023-05-12T12:28:06.414Z,47.44
2023-05-12T12:30:33.947Z,47.13
2023-05-12T12:33:00.725Z,47.21
2023-05-12T12:35:27.273Z,47.14
2023-05-12T12:37:53.841Z,46.97
2023-05-12T12:40:20.463Z,46.93
2023-05-12T12:42:47.236Z,47.06
2023-05-12T12:45:13.823Z,47.24
2023-05-12T12:47:40.457Z,47.13
2023-05-12T12:50:09.625Z,46.97
2023-05-12T12:52:37.966Z,46.87
2023-05-12T12:55:06.238Z,46.38
2023-05-12T12:57:32.746Z,45.20
2023-05-12T12:59:59.289Z,46.06
2023-05-12T13:02:25.915Z,46.56
2023-05-12T13:04:52.493Z,46.46
2023-05-12T13:07:19.026Z,46.60
2023-05-12T13:09:45.499Z,46.49
2023-05-12T13:12:12.020Z,49.97
2023-05-12T13:14:38.628Z,46.12
2023-05-12T13:17:05.294Z,45.80
2023-05-12T13:19:31.833Z,45.80
2023-05-12T13:21:58.315Z,45.83
2023-05-12T13:24:25.060Z,45.75
2023-05-12T13:26:51.673Z,46.09
2023-05-12T13:29:18.594Z,45.74
2023-05-12T13:31:46.426Z,46.20
2023-05-12T13:34:13.877Z,46.21
2023-05-12T13:36:40.947Z,46.00
2023-05-12T13:39:10.092Z,46.06
2023-05-12T13:41:37.162Z,46.18
2023-05-12T13:44:03.835Z,46.17
2023-05-12T13:46:30.396Z,46.26
2023-05-12T13:48:56.953Z,46.44
2023-05-12T13:51:23.927Z,46.25
2023-05-12T13:53:50.670Z,46.26
2023-05-12T13:56:17.429Z,46.79
2023-05-12T13:58:44.333Z,46.54
2023-05-12T14:01:11.718Z,46.64
2023-05-12T14:03:38.228Z,46.67
2023-05-12T14:06:05.166Z,46.50
2023-05-12T14:08:31.701Z,46.85
2023-05-12T14:10:58.769Z,46.78
2023-05-12T14:13:26.208Z,46.46
2023-05-12T14:15:53.896Z,46.51
2023-05-12T14:18:20.940Z,46.53
2023-05-12T14:20:47.787Z,46.58
2023-05-12T14:23:14.389Z,46.48
2023-05-12T14:25:41.133Z,46.33
2023-05-12T14:28:07.822Z,46.59
2023-05-12T14:30:35.320Z,46.22
2023-05-12T14:33:02.633Z,46.43
2023-05-12T14:35:29.533Z,46.48
2023-05-12T14:37:56.698Z,46.06
2023-05-12T14:40:23.450Z,45.51
2023-05-12T14:42:50.022Z,46.01
2023-05-12T14:45:16.663Z,46.09
2023-05-12T14:47:43.216Z,46.05
2023-05-12T14:50:10.492Z,46.34
2023-05-12T14:52:38.597Z,46.12
2023-05-12T14:55:12.493Z,46.07
2023-05-12T14:57:39.493Z,46.25
2023-05-12T15:00:11.655Z,46.09
2023-05-12T15:02:40.768Z,46.15
2023-05-12T15:05:08.752Z,46.31
2023-05-12T15:07:35.816Z,46.20
2023-05-12T15:10:02.451Z,46.21
2023-05-12T15:12:29.007Z,46.32
2023-05-12T15:15:01.073Z,46.11
2023-05-12T15:17:28.469Z,46.23
2023-05-12T15:19:55.831Z,46.14
2023-05-12T15:22:22.566Z,45.88
2023-05-12T15:24:49.093Z,45.78
2023-05-12T15:27:15.626Z,45.74
2023-05-12T15:29:42.173Z,45.93
2023-05-12T15:32:08.688Z,45.85
2023-05-12T15:34:35.400Z,45.78
2023-05-12T15:37:01.977Z,45.90
2023-05-12T15:39:28.543Z,45.75
2023-05-12T15:41:55.092Z,46.12
2023-05-12T15:44:21.613Z,46.09
2023-05-12T15:46:48.265Z,45.86
2023-05-12T15:49:14.782Z,46.08
2023-05-12T15:51:41.312Z,45.87
2023-05-12T15:54:09.481Z,46.20
2023-05-12T15:56:36.531Z,45.98
2023-05-12T15:59:05.161Z,46.36
2023-05-12T16:01:31.951Z,46.07
2023-05-12T16:03:58.676Z,46.29
2023-05-12T16:06:25.572Z,46.13
2023-05-12T16:08:53.188Z,46.36
2023-05-12T16:11:19.633Z,46.42
2023-05-12T16:13:46.180Z,46.20
2023-05-12T16:16:12.774Z,46.29
2023-05-12T16:18:40.118Z,46.32
2023-05-12T16:21:07.166Z,46.21
2023-05-12T16:23:33.651Z,46.26
2023-05-12T16:26:00.181Z,46.40
2023-05-12T16:28:26.993Z,46.27
2023-05-12T16:30:53.454Z,46.31
2023-05-12T16:33:19.941Z,46.59
2023-05-12T16:35:46.610Z,46.40
2023-05-12T16:38:13.497Z,46.29
2023-05-12T16:40:39.989Z,46.49
2023-05-12T16:43:06.502Z,46.58
2023-05-12T16:45:33.030Z,46.70
2023-05-12T16:47:59.889Z,46.60
2023-05-12T16:50:26.485Z,46.90
2023-05-12T16:52:53.726Z,46.64
2023-05-12T16:55:20.785Z,46.80
2023-05-12T16:57:47.598Z,46.81
2023-05-12T17:00:14.877Z,47.03
2023-05-12T17:02:41.550Z,47.05
2023-05-12T17:05:08.405Z,46.82
2023-05-12T17:07:37.949Z,47.02
2023-05-12T17:10:04.706Z,47.02
2023-05-12T17:12:31.435Z,47.14
2023-05-12T17:15:06.958Z,47.15
2023-05-12T17:17:34.752Z,46.98
2023-05-12T17:20:01.627Z,47.09
2023-05-12T17:22:28.322Z,47.26
2023-05-12T17:24:54.826Z,47.27
2023-05-12T17:27:21.562Z,47.19
2023-05-12T17:29:48.143Z,47.29
2023-05-12T17:32:14.690Z,47.29
2023-05-12T17:34:41.351Z,47.39
2023-05-12T17:37:07.849Z,47.76
2023-05-12T17:39:34.368Z,47.85
2023-05-12T17:42:00.893Z,48.00
2023-05-12T17:44:27.512Z,48.24
2023-05-12T17:46:54.268Z,48.79
2023-05-12T17:49:20.791Z,48.73
2023-05-12T17:51:49.345Z,49.54
2023-05-12T17:54:15.846Z,49.60
2023-05-12T17:56:42.709Z,49.81
2023-05-12T17:59:09.190Z,50.20
2023-05-12T18:01:36.438Z,50.81
2023-05-12T18:04:03.125Z,51.01
2023-05-12T18:06:30.413Z,50.94
2023-05-12T18:08:56.995Z,51.18
2023-05-12T18:11:23.591Z,51.40
2023-05-12T18:13:51.899Z,51.99
2023-05-12T18:16:28.032Z,51.93
2023-05-12T18:18:55.864Z,51.87
2023-05-12T18:21:22.443Z,52.30
2023-05-12T18:23:48.915Z,52.38
2023-05-12T18:26:15.432Z,52.48
2023-05-12T18:28:41.940Z,52.37
2023-05-12T18:31:15.834Z,52.35
2023-05-12T18:33:45.800Z,52.35
2023-05-12T18:36:12.927Z,52.42
2023-05-12T18:38:39.520Z,53.06
2023-05-12T18:41:06.121Z,52.43
2023-05-12T18:43:32.754Z,52.96
2023-05-12T18:45:59.309Z,52.92
2023-05-12T18:48:25.919Z,53.29
2023-05-12T18:50:52.504Z,53.57
2023-05-12T18:53:19.137Z,53.82
2023-05-12T18:55:45.644Z,54.20
2023-05-12T18:58:12.170Z,53.88
2023-05-12T19:00:38.783Z,53.99
2023-05-12T19:03:05.308Z,53.84
2023-05-12T19:05:32.005Z,53.75
2023-05-12T19:07:58.591Z,54.51
2023-05-12T19:10:25.180Z,54.05
2023-05-12T19:12:51.748Z,54.29
2023-05-12T19:15:18.578Z,54.18
2023-05-12T19:17:45.323Z,54.77
2023-05-12T19:20:12.036Z,55.07
2023-05-12T19:22:38.690Z,54.98
2023-05-12T19:25:06.479Z,55.13
2023-05-12T19:27:33.033Z,55.26
2023-05-12T19:30:02.207Z,55.11
2023-05-12T19:32:28.932Z,54.97
2023-05-12T19:34:56.056Z,55.70
2023-05-12T19:37:22.950Z,55.12
2023-05-12T19:39:50.147Z,55.10
2023-05-12T19:42:16.633Z,55.18
2023-05-12T19:44:43.226Z,55.45
2023-05-12T19:47:09.839Z,55.49
2023-05-12T19:49:36.423Z,55.44
2023-05-12T19:52:04.280Z,55.11
2023-05-12T19:54:30.810Z,55.02
2023-05-12T19:56:57.667Z,55.23
2023-05-12T19:59:24.618Z,55.38
2023-05-12T20:01:51.465Z,55.60
2023-05-12T20:04:18.161Z,55.49
2023-05-12T20:06:44.679Z,55.70
2023-05-12T20:09:11.231Z,55.70
2023-05-12T20:11:37.828Z,55.97
2023-05-12T20:14:04.313Z,56.09
2023-05-12T20:16:31.008Z,56.21
2023-05-12T20:18:57.591Z,55.97
2023-05-12T20:21:24.188Z,55.61
2023-05-12T20:23:50.734Z,55.63
2023-05-12T20:26:17.268Z,55.83
2023-05-12T20:28:43.825Z,55.99
2023-05-12T20:31:10.389Z,55.62
2023-05-12T20:33:36.911Z,55.81
2023-05-12T20:36:03.872Z,55.90
2023-05-12T20:38:30.414Z,55.77
2023-05-12T20:40:56.925Z,56.09
2023-05-12T20:43:23.451Z,55.87
2023-05-12T20:45:49.971Z,56.11
2023-05-12T20:48:16.510Z,56.20
2023-05-12T20:50:43.746Z,55.78
2023-05-12T20:53:10.319Z,55.97
2023-05-12T20:55:36.890Z,55.96
2023-05-12T20:58:03.505Z,56.17
2023-05-12T21:00:30.022Z,56.22
2023-05-12T21:02:58.044Z,56.28
2023-05-12T21:05:24.700Z,56.34
2023-05-12T21:07:51.410Z,56.43
2023-05-12T21:10:18.723Z,56.29
2023-05-12T21:12:45.378Z,56.41
2023-05-12T21:15:12.054Z,56.42
2023-05-12T21:17:39.535Z,56.54
2023-05-12T21:20:10.458Z,56.35
2023-05-12T21:22:38.033Z,56.47
2023-05-12T21:25:05.149Z,56.22
2023-05-12T21:27:31.785Z,57.01
2023-05-12T21:29:58.347Z,56.86
2023-05-12T21:32:25.010Z,56.82
2023-05-12T21:34:51.624Z,56.77
2023-05-12T21:37:18.128Z,57.00
2023-05-12T21:39:44.600Z,56.69
2023-05-12T21:42:11.096Z,56.98
2023-05-12T21:44:37.609Z,56.96
2023-05-12T21:47:04.398Z,56.83
2023-05-12T21:49:31.045Z,56.77
2023-05-12T21:51:57.533Z,57.00
2023-05-12T21:54:24.162Z,56.81
2023-05-12T21:56:50.783Z,57.00
2023-05-12T21:59:17.902Z,57.19
2023-05-12T22:01:44.392Z,57.07
2023-05-12T22:04:11.024Z,57.30
2023-05-12T22:06:37.647Z,57.40
2023-05-12T22:09:05.293Z,57.05
2023-05-12T22:11:31.780Z,57.23
2023-05-12T22:13:58.271Z,57.13
2023-05-12T22:16:31.183Z,57.06
2023-05-12T22:19:05.462Z,57.06
2023-05-12T22:21:32.406Z,57.00
2023-05-12T22:23:58.867Z,57.42
2023-05-12T22:26:25.483Z,57.57
2023-05-12T22:28:51.942Z,57.21
2023-05-12T22:31:18.548Z,57.41
2023-05-12T22:33:45.125Z,57.49
2023-05-12T22:36:11.626Z,57.48
2023-05-12T22:38:38.176Z,57.29
2023-05-12T22:41:04.750Z,57.42
2023-05-12T22:43:31.222Z,57.42
2023-05-12T22:45:57.709Z,57.37
2023-05-12T22:48:24.250Z,57.58
2023-05-12T22:50:54.097Z,57.55
2023-05-12T22:53:20.719Z,57.53
2023-05-12T22:55:47.258Z,57.63
2023-05-12T22:58:13.920Z,57.58
2023-05-12T23:00:40.580Z,57.85
2023-05-12T23:03:07.429Z,57.72
2023-05-12T23:05:34.038Z,57.91
2023-05-12T23:08:02.822Z,57.91
2023-05-12T23:10:29.359Z,57.93
2023-05-12T23:12:55.899Z,57.83
2023-05-12T23:15:22.403Z,57.84
2023-05-12T23:17:48.972Z,57.76
2023-05-12T23:20:15.488Z,57.76
2023-05-12T23:22:42.128Z,57.74
2023-05-12T23:25:09.267Z,57.74
2023-05-12T23:27:36.949Z,57.88
2023-05-12T23:30:03.458Z,57.70
2023-05-12T23:32:30.106Z,57.80
2023-05-12T23:34:56.713Z,57.89
2023-05-12T23:37:24.569Z,58.07
2023-05-12T23:39:51.337Z,57.80
2023-05-12T23:42:17.851Z,58.13
2023-05-12T23:44:44.387Z,57.79
2023-05-12T23:47:10.872Z,57.98
2023-05-12T23:49:37.449Z,58.02
2023-05-12T23:52:04.173Z,58.01
2023-05-12T23:54:30.894Z,58.18
2023-05-12T23:56:57.462Z,58.10
2023-05-12T23:59:23.965Z,58.13
